Time;durP1;ratioP1;P1;durP2;ratioP2;P2;SDS_P1;SDS_P2;PMS_P1;PMS_P2;Temp;Humidity;BMP_temperature;BMP_pressure;BME280_temperature;BME280_humidity;BME280_pressure;Samples;Min_cycle;Max_cycle;Signal;HPM_P1;HPM_P2
2023/11/27 05:01:30;;;;;;;3.75;3.40;;;3.00;99.90;;;;;;5429939;23;20247;-74
2023/11/27 05:03:57;;;;;;;3.83;3.53;;;3.00;99.90;;;;;;4947917;28;20205;-74
2023/11/27 05:06:24;;;;;;;4.40;3.03;;;3.10;99.90;;;;;;4946417;28;20275;-75
2023/11/27 05:08:50;;;;;;;3.53;3.00;;;3.00;99.90;;;;;;4943933;28;20228;-74
2023/11/27 05:11:18;;;;;;;2.88;2.70;;;3.10;99.90;;;;;;4937828;28;20229;-74
2023/11/27 05:13:46;;;;;;;2.97;2.75;;;3.10;99.90;;;;;;4934651;29;20651;-75
2023/11/27 05:16:14;;;;;;;2.47;1.88;;;3.00;99.90;;;;;;4930986;29;20232;-74
2023/11/27 05:18:43;;;;;;;3.95;3.60;;;3.10;99.90;;;;;;4933302;28;20198;-74
2023/11/27 05:21:11;;;;;;;3.72;2.30;;;3.00;99.90;;;;;;4934380;28;20241;-75
2023/11/27 05:23:38;;;;;;;5.20;3.28;;;3.00;99.90;;;;;;4933709;29;20205;-75
2023/11/27 05:26:06;;;;;;;3.30;3.10;;;3.00;99.90;;;;;;4934968;29;20205;-75
2023/11/27 05:28:33;;;;;;;1.63;1.52;;;3.00;99.90;;;;;;4939209;29;20576;-75
2023/11/27 05:31:00;;;;;;;4.22;4.03;;;3.00;99.90;;;;;;4939926;28;20320;-75
2023/11/27 05:33:26;;;;;;;7.25;4.38;;;3.00;99.90;;;;;;4940342;29;20665;-74
2023/11/27 05:35:55;;;;;;;4.03;3.63;;;3.00;99.90;;;;;;4936397;28;20237;-74
2023/11/27 05:38:21;;;;;;;3.47;3.17;;;3.00;99.90;;;;;;4937315;29;20209;-74
2023/11/27 05:40:48;;;;;;;3.58;3.28;;;3.00;99.90;;;;;;4934391;28;20226;-74
2023/11/27 05:43:15;;;;;;;5.07;4.57;;;3.00;99.90;;;;;;4938113;29;20214;-74
2023/11/27 05:45:41;;;;;;;4.65;3.05;;;3.00;99.90;;;;;;4938249;28;20657;-74
2023/11/27 05:48:08;;;;;;;4.97;4.00;;;3.00;99.90;;;;;;4934034;29;20217;-74
2023/11/27 05:50:39;;;;;;;4.00;3.70;;;3.00;99.90;;;;;;4937146;28;20702;-74
2023/11/27 05:53:07;;;;;;;3.80;3.50;;;3.00;99.90;;;;;;4936217;29;20214;-73
2023/11/27 05:55:33;;;;;;;9.15;3.13;;;3.00;99.90;;;;;;4944090;29;20304;-75
2023/11/27 05:58:00;;;;;;;3.25;2.08;;;3.00;99.90;;;;;;4928659;29;20210;-74
2023/11/27 06:00:27;;;;;;;4.10;3.40;;;3.00;99.90;;;;;;4941347;28;20210;-74
2023/11/27 06:02:53;;;;;;;3.35;2.20;;;3.00;99.90;;;;;;4931684;29;20219;-74
2023/11/27 06:05:20;;;;;;;3.75;3.47;;;3.00;99.90;;;;;;4942393;29;20798;-74
2023/11/27 06:07:47;;;;;;;4.28;3.05;;;3.00;99.90;;;;;;4933459;28;20247;-74
2023/11/27 06:10:16;;;;;;;1.80;1.73;;;3.00;99.90;;;;;;4938375;28;20277;-75
2023/11/27 06:12:43;;;;;;;3.90;3.60;;;3.00;99.90;;;;;;4942049;28;20209;-74
2023/11/27 06:15:13;;;;;;;3.63;3.35;;;3.00;99.90;;;;;;4936001;29;20202;-75
2023/11/27 06:17:40;;;;;;;3.15;2.58;;;3.00;99.90;;;;;;4936832;28;20296;-74
2023/11/27 06:20:12;;;;;;;5.18;3.08;;;3.00;99.90;;;;;;4937361;29;20209;-74
2023/11/27 06:22:38;;;;;;;2.63;2.50;;;3.00;99.90;;;;;;4934134;29;20651;-74
2023/11/27 06:25:07;;;;;;;3.38;3.08;;;3.00;99.90;;;;;;4938756;29;20210;-74
2023/11/27 06:27:35;;;;;;;3.40;3.20;;;3.00;99.90;;;;;;4941817;29;20205;-74
2023/11/27 06:30:02;;;;;;;3.40;2.55;;;3.00;99.90;;;;;;4933574;29;20233;-74
2023/11/27 06:32:29;;;;;;;6.82;4.03;;;3.00;99.90;;;;;;4936178;29;20236;-74
2023/11/27 06:34:56;;;;;;;1.45;1.30;;;3.00;99.90;;;;;;4939217;28;20221;-74
2023/11/27 06:37:23;;;;;;;1.00;0.95;;;3.00;99.90;;;;;;4938098;29;20225;-74
2023/11/27 06:39:49;;;;;;;2.15;2.05;;;3.00;99.90;;;;;;4942631;29;20216;-73
2023/11/27 06:42:16;;;;;;;3.78;2.05;;;3.00;99.90;;;;;;4938341;28;20629;-74
2023/11/27 06:44:44;;;;;;;3.63;3.13;;;3.10;99.90;;;;;;4936162;28;20217;-74
2023/11/27 06:47:11;;;;;;;4.68;3.67;;;3.00;99.90;;;;;;4935193;29;20221;-74
2023/11/27 06:49:37;;;;;;;3.03;2.13;;;3.00;99.90;;;;;;4936709;28;20217;-74
2023/11/27 06:52:04;;;;;;;3.85;3.60;;;3.10;99.90;;;;;;4938509;28;20232;-74
2023/11/27 06:54:31;;;;;;;2.35;2.25;;;3.00;99.90;;;;;;4938570;29;20221;-74
2023/11/27 06:56:58;;;;;;;2.60;2.42;;;3.00;99.90;;;;;;4936292;28;20306;-74
2023/11/27 06:59:24;;;;;;;3.90;2.28;;;3.10;99.90;;;;;;4940558;29;20210;-74
2023/11/27 07:01:52;;;;;;;2.83;2.63;;;3.10;99.90;;;;;;4934652;28;20233;-74
2023/11/27 07:04:19;;;;;;;4.13;3.72;;;3.10;99.90;;;;;;4941738;29;20214;-74
2023/11/27 07:06:46;;;;;;;3.08;2.40;;;3.10;99.90;;;;;;4943363;28;20229;-74
2023/11/27 07:09:15;;;;;;;2.67;2.47;;;3.10;99.90;;;;;;4941539;29;20230;-74
2023/11/27 07:11:41;;;;;;;1.55;1.50;;;3.10;99.90;;;;;;4943061;28;20249;-74
2023/11/27 07:14:08;;;;;;;2.60;2.40;;;3.10;99.90;;;;;;4936952;29;20261;-73
2023/11/27 07:16:37;;;;;;;3.00;2.13;;;3.10;99.90;;;;;;4934612;28;20324;-73
2023/11/27 07:19:05;;;;;;;2.30;2.20;;;3.10;99.90;;;;;;4940880;29;20245;-74
2023/11/27 07:21:32;;;;;;;1.80;1.80;;;3.10;99.90;;;;;;4942147;28;20229;-74
2023/11/27 07:23:59;;;;;;;1.88;1.77;;;3.10;99.90;;;;;;4938919;29;20269;-74
2023/11/27 07:26:26;;;;;;;5.60;1.80;;;3.10;99.90;;;;;;4941797;29;20210;-74
2023/11/27 07:28:55;;;;;;;2.17;1.48;;;3.10;99.90;;;;;;4935525;29;20300;-74
2023/11/27 07:31:23;;;;;;;2.25;2.08;;;3.10;99.90;;;;;;4933382;28;20433;-74
2023/11/27 07:33:50;;;;;;;2.40;2.30;;;3.20;99.90;;;;;;4937108;29;20290;-74
2023/11/27 07:36:18;;;;;;;1.10;1.08;;;3.20;99.90;;;;;;4937293;29;20285;-74
2023/11/27 07:38:48;;;;;;;3.08;2.10;;;3.20;99.90;;;;;;4934026;28;20217;-74
2023/11/27 07:41:15;;;;;;;1.95;1.58;;;3.20;99.90;;;;;;4939103;28;20280;-74
2023/11/27 07:43:42;;;;;;;2.10;2.00;;;3.20;99.90;;;;;;4929940;29;20242;-74
2023/11/27 07:46:10;;;;;;;1.95;1.45;;;3.30;99.90;;;;;;4934490;29;20209;-74
2023/11/27 07:48:37;;;;;;;1.65;1.65;;;3.20;99.90;;;;;;4932784;28;20220;-74
2023/11/27 07:51:05;;;;;;;3.28;2.90;;;3.30;99.90;;;;;;4931956;28;20234;-72
2023/11/27 07:53:33;;;;;;;3.63;3.45;;;3.30;99.90;;;;;;4927579;29;20209;-73
2023/11/27 07:56:00;;;;;;;1.83;1.80;;;3.30;99.90;;;;;;4933290;29;20213;-72
2023/11/27 07:58:27;;;;;;;2.97;2.67;;;3.30;99.90;;;;;;4934307;29;20214;-72
2023/11/27 08:00:54;;;;;;;1.65;1.55;;;3.30;99.90;;;;;;4930647;28;20242;-72
2023/11/27 08:03:21;;;;;;;2.55;2.45;;;3.30;99.90;;;;;;4934774;29;20206;-73
2023/11/27 08:05:48;;;;;;;1.92;1.52;;;3.30;99.90;;;;;;4937925;29;20214;-72
2023/11/27 08:08:15;;;;;;;3.92;2.17;;;3.30;99.90;;;;;;4934287;29;20206;-73
2023/11/27 08:10:44;;;;;;;3.10;2.60;;;3.30;99.90;;;;;;4928565;29;20229;-73
2023/11/27 08:13:11;;;;;;;1.48;1.33;;;3.30;99.90;;;;;;4934809;29;21265;-73
2023/11/27 08:15:38;;;;;;;2.90;2.63;;;3.30;99.90;;;;;;4932784;29;20228;-72
2023/11/27 08:18:05;;;;;;;2.22;1.92;;;3.30;99.90;;;;;;4934405;29;20213;-73
2023/11/27 08:20:32;;;;;;;4.03;2.67;;;3.30;99.90;;;;;;4940094;28;20229;-73
2023/11/27 08:22:59;;;;;;;2.05;1.40;;;3.30;99.90;;;;;;4936612;29;20320;-74
2023/11/27 08:25:26;;;;;;;3.28;3.05;;;3.30;99.90;;;;;;4934016;29;20212;-73
2023/11/27 08:27:55;;;;;;;3.53;3.25;;;3.30;99.90;;;;;;4939371;29;20540;-73
2023/11/27 08:30:22;;;;;;;2.38;2.25;;;3.30;99.90;;;;;;4933161;28;20226;-73
2023/11/27 08:32:49;;;;;;;1.30;1.30;;;3.30;99.90;;;;;;4938791;29;20661;-72
2023/11/27 08:35:16;;;;;;;3.20;3.10;;;3.40;99.90;;;;;;4938612;29;20202;-73
2023/11/27 08:37:43;;;;;;;2.90;2.63;;;3.40;99.90;;;;;;4946999;28;20206;-73
2023/11/27 08:40:12;;;;;;;2.60;2.40;;;3.40;99.90;;;;;;4931488;29;20206;-74
2023/11/27 08:42:40;;;;;;;2.67;2.47;;;3.40;99.90;;;;;;4941638;28;20205;-73
2023/11/27 08:45:13;;;;;;;2.72;1.98;;;3.40;99.90;;;;;;4937233;28;20210;-73
2023/11/27 08:47:40;;;;;;;1.90;1.80;;;3.40;99.90;;;;;;4933314;29;20594;-72
2023/11/27 08:50:10;;;;;;;3.20;3.00;;;3.40;99.90;;;;;;4937116;29;20225;-73
2023/11/27 08:52:37;;;;;;;2.47;2.30;;;3.50;99.90;;;;;;4935929;29;20234;-73
2023/11/27 08:55:05;;;;;;;2.45;2.22;;;3.40;99.90;;;;;;4931325;28;20214;-73
2023/11/27 08:57:32;;;;;;;2.13;2.13;;;3.50;99.90;;;;;;4934911;29;20228;-73
2023/11/27 08:59:59;;;;;;;2.58;2.40;;;3.50;99.90;;;;;;4937690;29;20220;-72
2023/11/27 09:02:30;;;;;;;2.40;2.40;;;3.40;99.90;;;;;;4938098;28;20238;-73
2023/11/27 09:04:56;;;;;;;2.17;2.08;;;3.50;99.90;;;;;;4929495;29;20218;-73
2023/11/27 09:07:23;;;;;;;2.17;2.08;;;3.50;99.90;;;;;;4933427;29;20218;-73
2023/11/27 09:09:50;;;;;;;2.40;2.30;;;3.50;99.90;;;;;;4936330;28;20592;-72
2023/11/27 09:12:16;;;;;;;3.25;1.90;;;3.50;99.90;;;;;;4931674;29;20342;-74
2023/11/27 09:14:43;;;;;;;2.90;2.70;;;3.50;99.90;;;;;;4930734;29;20206;-71
2023/11/27 09:17:10;;;;;;;2.10;2.00;;;3.50;99.90;;;;;;4931617;29;20206;-73
2023/11/27 09:19:38;;;;;;;2.08;1.98;;;3.50;99.90;;;;;;4927739;28;20226;-74
2023/11/27 09:22:05;;;;;;;2.25;2.15;;;3.50;99.90;;;;;;4932184;28;20233;-73
2023/11/27 09:24:32;;;;;;;2.70;2.60;;;3.60;99.90;;;;;;4942030;29;20218;-73
2023/11/27 09:27:01;;;;;;;5.65;3.92;;;3.60;99.90;;;;;;4936820;28;20212;-73
2023/11/27 09:29:28;;;;;;;1.40;0.98;;;3.60;99.90;;;;;;4941715;29;20234;-73
2023/11/27 09:31:54;;;;;;;1.52;1.42;;;3.60;99.90;;;;;;4930253;28;20241;-73
2023/11/27 09:34:21;;;;;;;2.00;1.90;;;3.60;99.90;;;;;;4939707;29;20221;-73
2023/11/27 09:36:49;;;;;;;2.03;1.92;;;3.60;99.90;;;;;;4946357;28;20205;-73
2023/11/27 09:39:17;;;;;;;2.00;1.90;;;3.60;99.90;;;;;;4933749;29;20206;-73
2023/11/27 09:41:44;;;;;;;3.05;1.95;;;3.60;99.90;;;;;;4938043;28;20230;-73
2023/11/27 09:44:12;;;;;;;2.17;2.08;;;3.60;99.90;;;;;;4937055;29;20202;-73
2023/11/27 09:46:42;;;;;;;1.50;1.40;;;3.60;99.90;;;;;;4945978;28;20237;-73
2023/11/27 09:49:10;;;;;;;1.70;1.65;;;3.60;99.90;;;;;;4942728;28;20732;-72
2023/11/27 09:51:39;;;;;;;1.80;1.70;;;3.60;99.90;;;;;;4931433;29;20233;-73
2023/11/27 09:54:11;;;;;;;1.02;1.02;;;3.70;99.90;;;;;;4941793;28;20245;-73
2023/11/27 09:56:39;;;;;;;1.30;1.30;;;3.70;99.90;;;;;;4937083;29;20290;-73
2023/11/27 09:59:08;;;;;;;3.13;2.83;;;3.70;99.90;;;;;;4935346;28;20221;-73
2023/11/27 10:01:36;;;;;;;1.80;1.75;;;3.70;99.90;;;;;;4934952;28;20240;-73
2023/11/27 10:04:07;;;;;;;2.08;1.90;;;3.70;99.90;;;;;;4944117;28;20210;-73
2023/11/27 10:06:36;;;;;;;1.95;1.65;;;3.70;99.90;;;;;;4935254;29;20560;-73
2023/11/27 10:09:04;;;;;;;2.22;2.13;;;3.70;99.90;;;;;;4933196;29;20206;-73
2023/11/27 10:11:33;;;;;;;3.05;2.85;;;3.70;99.90;;;;;;4936442;28;20324;-73
2023/11/27 10:14:04;;;;;;;2.65;2.45;;;3.70;99.90;;;;;;4933573;29;20209;-72
2023/11/27 10:16:32;;;;;;;1.50;1.50;;;3.70;99.90;;;;;;4943676;29;20252;-71
2023/11/27 10:19:05;;;;;;;2.75;2.60;;;3.70;99.90;;;;;;4936917;29;20205;-72
2023/11/27 10:21:33;;;;;;;1.80;1.73;;;3.80;99.90;;;;;;4935842;28;20288;-72
2023/11/27 10:24:01;;;;;;;1.42;1.42;;;3.80;99.90;;;;;;4936150;29;20214;-72
2023/11/27 10:26:29;;;;;;;2.42;2.10;;;3.80;99.90;;;;;;4938721;29;20324;-72
2023/11/27 10:28:58;;;;;;;1.80;1.80;;;3.80;99.90;;;;;;4932200;29;20222;-72
2023/11/27 10:31:26;;;;;;;1.83;1.73;;;3.80;99.90;;;;;;4943311;28;20257;-72
2023/11/27 10:33:53;;;;;;;1.95;1.85;;;3.80;99.90;;;;;;4950010;28;20295;-72
2023/11/27 10:36:23;;;;;;;1.77;1.77;;;3.70;99.90;;;;;;4946779;29;20214;-73
2023/11/27 10:39:00;;;;;;;2.15;1.65;;;3.70;99.90;;;;;;4942142;28;20280;-73
2023/11/27 10:41:30;;;;;;;13.10;3.92;;;3.70;99.90;;;;;;4933325;28;20741;-73
2023/11/27 10:43:59;;;;;;;1.42;1.42;;;3.70;99.90;;;;;;4940102;29;20683;-72
2023/11/27 10:46:29;;;;;;;1.33;1.10;;;3.60;99.90;;;;;;4939809;29;20210;-72
2023/11/27 10:48:59;;;;;;;1.92;1.83;;;3.60;99.90;;;;;;4936042;29;20209;-73
2023/11/27 10:51:29;;;;;;;1.48;1.45;;;3.60;99.90;;;;;;4933560;28;20331;-73
2023/11/27 10:53:56;;;;;;;1.48;1.45;;;3.60;99.90;;;;;;4946211;29;20209;-73
2023/11/27 10:56:27;;;;;;;1.70;1.70;;;3.70;99.90;;;;;;4943134;29;20587;-72
2023/11/27 10:58:55;;;;;;;1.95;1.55;;;3.70;99.90;;;;;;4935728;28;20225;-72
2023/11/27 11:01:28;;;;;;;1.73;1.63;;;3.70;99.90;;;;;;4942934;28;20252;-72
2023/11/27 11:04:02;;;;;;;1.95;1.85;;;3.60;99.90;;;;;;4936233;28;20221;-72
2023/11/27 11:06:29;;;;;;;1.63;1.52;;;3.60;99.90;;;;;;4940071;29;20221;-72
2023/11/27 11:08:57;;;;;;;3.30;1.88;;;3.60;99.90;;;;;;4945650;29;20233;-72
2023/11/27 11:11:25;;;;;;;1.55;1.52;;;3.60;99.90;;;;;;4940188;28;20264;-72
2023/11/27 11:13:52;;;;;;;1.45;1.35;;;3.60;99.90;;;;;;4940323;29;20707;-72
2023/11/27 11:16:26;;;;;;;2.75;1.88;;;3.60;99.90;;;;;;4938424;29;20241;-72
2023/11/27 11:18:57;;;;;;;2.85;2.65;;;3.60;99.90;;;;;;4938204;29;20205;-72
2023/11/27 11:21:43;;;;;;;2.40;2.20;;;3.60;99.90;;;;;;4927995;29;20644;-72
2023/11/27 11:24:15;;;;;;;1.85;1.40;;;3.60;99.90;;;;;;4931886;29;20210;-72
2023/11/27 11:26:55;;;;;;;2.10;1.50;;;3.60;99.90;;;;;;4932705;29;20217;-72
2023/11/27 11:29:32;;;;;;;2.25;1.50;;;3.50;99.90;;;;;;4941932;29;20206;-72
2023/11/27 11:32:03;;;;;;;1.50;1.40;;;3.50;99.90;;;;;;4935190;28;20233;-72
2023/11/27 11:34:32;;;;;;;1.95;1.77;;;3.50;99.90;;;;;;4947866;29;20214;-72
2023/11/27 11:37:01;;;;;;;2.60;2.40;;;3.50;99.90;;;;;;4940838;28;20248;-72
2023/11/27 11:39:28;;;;;;;1.23;1.23;;;3.60;99.90;;;;;;4938805;29;20592;-73
2023/11/27 11:42:05;;;;;;;0.65;0.65;;;3.60;99.90;;;;;;4934790;28;20229;-73
2023/11/27 11:44:34;;;;;;;1.10;1.00;;;3.60;99.90;;;;;;4941801;29;20273;-73
2023/11/27 11:47:08;;;;;;;2.17;1.20;;;3.50;99.90;;;;;;4930993;29;20210;-74
2023/11/27 11:49:35;;;;;;;1.20;1.20;;;3.50;99.90;;;;;;4944886;29;20221;-75
2023/11/27 11:52:07;;;;;;;2.03;1.92;;;3.50;99.90;;;;;;4931572;28;20242;-74
2023/11/27 11:54:38;;;;;;;1.65;1.55;;;3.50;99.90;;;;;;4927658;29;20221;-74
2023/11/27 11:57:22;;;;;;;1.58;1.58;;;3.50;99.90;;;;;;4928299;29;20692;-74
2023/11/27 11:59:50;;;;;;;4.57;1.40;;;3.50;99.90;;;;;;4932713;29;20230;-74
2023/11/27 12:02:21;;;;;;;1.60;1.60;;;3.50;99.90;;;;;;4932056;29;20225;-74
2023/11/27 12:04:53;;;;;;;1.30;1.30;;;3.50;99.90;;;;;;4949313;28;20300;-74
2023/11/27 12:07:21;;;;;;;2.22;2.22;;;3.40;99.90;;;;;;4934048;28;20210;-74
2023/11/27 12:09:49;;;;;;;1.45;1.45;;;3.40;99.90;;;;;;4946776;28;20349;-73
2023/11/27 12:12:16;;;;;;;1.15;1.15;;;3.40;99.90;;;;;;4938859;29;20241;-74
2023/11/27 12:14:44;;;;;;;1.50;1.35;;;3.30;99.90;;;;;;4936004;29;20613;-75
2023/11/27 12:17:15;;;;;;;1.60;1.52;;;3.30;99.90;;;;;;4937312;29;20209;-74
2023/11/27 12:19:45;;;;;;;0.82;0.82;;;3.30;99.90;;;;;;4937680;29;20206;-73
2023/11/27 12:22:12;;;;;;;1.05;1.05;;;3.30;99.90;;;;;;4937387;28;20226;-73
2023/11/27 12:24:44;;;;;;;2.05;2.05;;;3.30;99.90;;;;;;4946862;28;20272;-73
2023/11/27 12:27:10;;;;;;;1.88;1.77;;;3.30;99.90;;;;;;4935228;28;20588;-75
2023/11/27 12:29:38;;;;;;;0.75;0.75;;;3.30;99.90;;;;;;4938724;28;20341;-73
2023/11/27 12:32:06;;;;;;;0.90;0.90;;;3.30;99.90;;;;;;4934814;29;20240;-74
2023/11/27 12:34:35;;;;;;;1.60;1.50;;;3.30;99.90;;;;;;4938862;29;20533;-75
2023/11/27 12:37:06;;;;;;;1.38;1.38;;;3.20;99.90;;;;;;4933277;29;20210;-72
2023/11/27 12:39:37;;;;;;;1.15;1.15;;;3.30;99.90;;;;;;4947380;29;20205;-73
2023/11/27 12:42:12;;;;;;;1.02;1.02;;;3.30;99.90;;;;;;4935307;28;20230;-73
2023/11/27 12:44:46;;;;;;;0.98;0.95;;;3.30;99.90;;;;;;4934075;29;20694;-74
2023/11/27 12:47:18;;;;;;;1.23;1.10;;;3.30;99.90;;;;;;4937640;29;20292;-73
2023/11/27 12:49:48;;;;;;;1.33;0.90;;;3.20;99.90;;;;;;4932557;29;20205;-73
2023/11/27 12:52:16;;;;;;;1.10;1.10;;;3.20;99.90;;;;;;4939059;29;20233;-72
2023/11/27 12:54:43;;;;;;;1.25;1.15;;;3.20;99.90;;;;;;4931801;29;20209;-72
2023/11/27 12:57:11;;;;;;;2.20;2.15;;;3.20;99.90;;;;;;4941599;28;20824;-73
2023/11/27 12:59:42;;;;;;;1.35;1.35;;;3.10;99.90;;;;;;4932692;29;20696;-74
2023/11/27 13:02:09;;;;;;;1.98;1.20;;;3.10;99.90;;;;;;4935679;28;20584;-73
2023/11/27 13:04:37;;;;;;;1.35;1.35;;;3.10;99.90;;;;;;4943402;28;20627;-73
2023/11/27 13:07:09;;;;;;;0.73;0.73;;;3.10;99.90;;;;;;4941845;28;20213;-73
2023/11/27 13:09:38;;;;;;;1.77;1.15;;;3.10;99.90;;;;;;4941680;28;20210;-73
2023/11/27 13:12:15;;;;;;;1.27;1.17;;;3.10;99.90;;;;;;4927601;28;20241;-74
2023/11/27 13:14:42;;;;;;;1.00;0.73;;;3.10;99.90;;;;;;4931330;29;20209;-74
2023/11/27 13:17:18;;;;;;;1.13;1.13;;;3.00;99.90;;;;;;4935782;28;20667;-74
2023/11/27 13:19:48;;;;;;;2.47;2.33;;;3.00;99.90;;;;;;4938801;28;20209;-73
2023/11/27 13:22:15;;;;;;;0.82;0.75;;;3.00;99.90;;;;;;4936893;28;20673;-74
2023/11/27 13:24:44;;;;;;;0.90;0.90;;;3.00;99.90;;;;;;4941914;28;20467;-72
2023/11/27 13:27:16;;;;;;;1.70;1.65;;;2.90;99.90;;;;;;4938259;28;20206;-73
2023/11/27 13:29:44;;;;;;;0.90;0.90;;;2.90;99.90;;;;;;4926091;29;20206;-73
2023/11/27 13:32:13;;;;;;;1.20;1.20;;;2.90;99.90;;;;;;4934652;29;20238;-72
2023/11/27 13:34:43;;;;;;;0.93;0.93;;;2.90;99.90;;;;;;4934397;28;20247;-73
2023/11/27 13:37:10;;;;;;;1.00;1.00;;;2.90;99.90;;;;;;4937202;29;20324;-73
2023/11/27 13:39:40;;;;;;;2.30;1.00;;;2.90;99.90;;;;;;4930872;29;20206;-73
2023/11/27 13:42:09;;;;;;;1.05;1.05;;;2.90;99.90;;;;;;4927081;29;20222;-74
2023/11/27 13:44:37;;;;;;;1.45;1.45;;;2.80;99.90;;;;;;4938769;28;20275;-72
2023/11/27 13:47:05;;;;;;;2.75;1.73;;;2.80;99.90;;;;;;4941833;28;20237;-73
2023/11/27 13:49:32;;;;;;;1.00;1.00;;;2.80;99.90;;;;;;4936067;29;20221;-72
2023/11/27 13:52:01;;;;;;;0.70;0.70;;;2.80;99.90;;;;;;4987458;23;20244;-71
2023/11/27 13:54:29;;;;;;;1.63;1.63;;;2.80;99.90;;;;;;4951179;28;20217;-70
2023/11/27 13:56:58;;;;;;;1.67;1.63;;;2.80;99.90;;;;;;4953673;28;20553;-70
2023/11/27 13:59:35;;;;;;;1.48;1.38;;;2.80;99.90;;;;;;4956012;28;20584;-70
2023/11/27 14:02:09;;;;;;;2.25;2.05;;;2.80;99.90;;;;;;4944915;28;20606;-70
2023/11/27 14:04:37;;;;;;;1.90;1.45;;;2.70;99.90;;;;;;4935516;29;20322;-70
2023/11/27 14:07:06;;;;;;;1.40;1.38;;;2.70;99.90;;;;;;4935766;29;20652;-70
2023/11/27 14:12:26;;;;;;;1.10;1.10;;;2.70;99.90;;;;;;4931296;29;20244;-71
2023/11/27 14:15:05;;;;;;;3.35;1.40;;;2.70;99.90;;;;;;4935125;29;20221;-70
2023/11/27 14:17:36;;;;;;;1.70;1.70;;;2.70;99.90;;;;;;4933892;29;20213;-70
2023/11/27 14:23:15;;;;;;;1.10;1.10;;;2.70;99.90;;;;;;4928304;29;20316;-70
2023/11/27 14:28:42;;;;;;;1.83;1.77;;;2.60;99.90;;;;;;4920692;29;20213;-71
2023/11/27 14:31:10;;;;;;;2.13;1.95;;;2.60;99.90;;;;;;4933794;29;20296;-72
2023/11/27 14:33:37;;;;;;;1.70;1.70;;;2.60;99.90;;;;;;4933448;29;20238;-71
2023/11/27 14:36:04;;;;;;;1.02;1.02;;;2.60;99.90;;;;;;4931284;29;20209;-71
2023/11/27 14:38:30;;;;;;;1.52;1.42;;;2.60;99.90;;;;;;4933383;29;20206;-72
2023/11/27 14:40:57;;;;;;;1.13;1.13;;;2.60;99.90;;;;;;4928382;29;20206;-71
2023/11/27 14:43:25;;;;;;;1.23;1.23;;;2.60;99.90;;;;;;4932775;29;20222;-72
2023/11/27 14:45:52;;;;;;;1.30;1.30;;;2.50;99.90;;;;;;4934106;29;20212;-72
2023/11/27 14:48:23;;;;;;;3.00;2.75;;;2.50;99.90;;;;;;4933154;29;20296;-71
2023/11/27 14:50:51;;;;;;;1.70;1.67;;;2.50;99.90;;;;;;4933275;29;20309;-71
2023/11/27 14:53:19;;;;;;;3.17;1.67;;;2.40;99.90;;;;;;4934711;29;20218;-71
2023/11/27 14:55:47;;;;;;;2.03;1.95;;;2.40;99.90;;;;;;4931721;29;20213;-71
2023/11/27 14:58:16;;;;;;;2.80;1.55;;;2.40;99.90;;;;;;4933355;29;20237;-71
2023/11/27 15:00:47;;;;;;;2.40;2.20;;;2.40;99.90;;;;;;4929823;29;20214;-71
2023/11/27 15:03:19;;;;;;;2.65;2.45;;;2.30;99.90;;;;;;4925923;29;20206;-71
2023/11/27 15:05:47;;;;;;;1.52;1.52;;;2.30;99.90;;;;;;4919852;29;20309;-72
2023/11/27 15:08:14;;;;;;;1.77;1.65;;;2.30;99.90;;;;;;4930839;29;20208;-71
2023/11/27 15:10:41;;;;;;;3.40;2.20;;;2.30;99.90;;;;;;4930502;29;20234;-71
2023/11/27 15:13:08;;;;;;;1.98;1.80;;;2.30;99.90;;;;;;4929011;29;20237;-72
2023/11/27 15:15:34;;;;;;;3.58;2.63;;;2.30;99.90;;;;;;4929460;29;20217;-71
2023/11/27 15:18:05;;;;;;;5.45;3.40;;;2.20;99.90;;;;;;4931352;29;21113;-71
2023/11/27 15:20:34;;;;;;;1.88;1.38;;;2.30;99.90;;;;;;4925478;29;20257;-71
2023/11/27 15:23:03;;;;;;;2.92;2.63;;;2.20;99.90;;;;;;4932206;29;20253;-71
2023/11/27 15:25:32;;;;;;;3.08;2.97;;;2.20;99.90;;;;;;4928894;29;20211;-71
2023/11/27 15:27:59;;;;;;;0.95;0.95;;;2.20;99.90;;;;;;4925197;29;20209;-70
2023/11/27 15:30:28;;;;;;;2.42;2.22;;;2.20;99.90;;;;;;4932238;29;20214;-70
2023/11/27 15:32:56;;;;;;;2.30;2.20;;;2.20;99.90;;;;;;4934278;29;20299;-70
2023/11/27 15:35:25;;;;;;;4.75;3.55;;;2.10;99.90;;;;;;4930679;29;20214;-71
2023/11/27 15:37:52;;;;;;;4.15;2.88;;;2.20;99.90;;;;;;4930424;29;20305;-71
2023/11/27 15:40:23;;;;;;;3.05;2.72;;;2.10;99.90;;;;;;4933596;29;20217;-71
2023/11/27 15:42:50;;;;;;;3.95;3.60;;;2.10;99.90;;;;;;4931013;29;20230;-70
2023/11/27 15:45:17;;;;;;;4.40;4.00;;;2.10;99.90;;;;;;4926630;29;20305;-71
2023/11/27 15:47:43;;;;;;;3.00;2.90;;;2.10;99.90;;;;;;4931422;29;20218;-71
2023/11/27 15:50:13;;;;;;;2.42;2.33;;;2.10;99.90;;;;;;4933167;29;20201;-71
2023/11/27 15:52:40;;;;;;;3.58;3.28;;;2.00;99.90;;;;;;4925904;29;20237;-71
2023/11/27 15:55:08;;;;;;;2.83;2.72;;;2.00;99.90;;;;;;4933979;29;20217;-71
2023/11/27 15:57:36;;;;;;;4.95;3.15;;;2.00;99.90;;;;;;4928781;29;20210;-71
2023/11/27 16:00:05;;;;;;;3.08;2.88;;;2.00;99.90;;;;;;4926386;29;20841;-71
2023/11/27 16:02:32;;;;;;;2.40;2.08;;;2.00;99.90;;;;;;4931812;29;20237;-71
2023/11/27 16:05:00;;;;;;;4.35;3.22;;;2.00;99.90;;;;;;4932670;29;20703;-71
2023/11/27 16:07:26;;;;;;;2.47;2.35;;;2.00;99.90;;;;;;4931128;29;20535;-71
2023/11/27 16:09:54;;;;;;;3.63;3.33;;;2.00;99.90;;;;;;4931413;29;20216;-71
2023/11/27 16:12:20;;;;;;;2.33;2.10;;;1.90;99.90;;;;;;4926553;29;20292;-70
2023/11/27 16:14:48;;;;;;;2.63;2.53;;;1.90;99.90;;;;;;4929208;29;20293;-71
2023/11/27 16:17:17;;;;;;;3.03;2.85;;;1.90;99.90;;;;;;4929137;29;20216;-70
2023/11/27 16:19:44;;;;;;;2.88;2.72;;;1.90;99.90;;;;;;4931817;29;20202;-71
2023/11/27 16:22:11;;;;;;;3.33;2.90;;;1.90;99.90;;;;;;4927430;29;20232;-72
2023/11/27 16:24:38;;;;;;;7.85;2.83;;;1.90;99.90;;;;;;4926359;29;20645;-71
2023/11/27 16:27:05;;;;;;;2.78;2.75;;;1.80;99.90;;;;;;4927557;29;20237;-71
2023/11/27 16:29:33;;;;;;;3.95;3.65;;;1.90;99.90;;;;;;4931826;29;20228;-70
2023/11/27 16:32:07;;;;;;;5.65;4.32;;;1.90;99.90;;;;;;4929018;29;20226;-71
2023/11/27 16:34:35;;;;;;;3.03;2.83;;;1.80;99.90;;;;;;4930631;29;20220;-71
2023/11/27 16:37:02;;;;;;;2.67;2.58;;;1.80;99.90;;;;;;4929385;29;20206;-70
2023/11/27 16:39:28;;;;;;;4.85;4.28;;;1.80;99.90;;;;;;4932177;29;20241;-70
2023/11/27 16:41:59;;;;;;;3.47;3.08;;;1.80;99.90;;;;;;4926912;29;20270;-71
2023/11/27 16:44:26;;;;;;;3.95;3.65;;;1.80;99.90;;;;;;4937232;29;20237;-71
2023/11/27 16:46:54;;;;;;;2.28;2.10;;;1.70;99.90;;;;;;4940008;29;20217;-71
2023/11/27 16:49:22;;;;;;;5.97;5.43;;;1.70;99.90;;;;;;4935138;29;20224;-71
2023/11/27 16:51:49;;;;;;;5.47;3.55;;;1.70;99.90;;;;;;4938079;29;20241;-71
2023/11/27 16:54:16;;;;;;;5.97;3.65;;;1.70;99.90;;;;;;4933105;29;20316;-71
2023/11/27 16:56:43;;;;;;;4.90;4.18;;;1.60;99.90;;;;;;4926175;29;20217;-70
2023/11/27 16:59:11;;;;;;;3.67;3.15;;;1.60;99.90;;;;;;4928838;29;20700;-72
2023/11/27 17:01:38;;;;;;;3.63;3.42;;;1.60;99.90;;;;;;4931761;29;20245;-71
2023/11/27 17:04:05;;;;;;;2.10;1.95;;;1.60;99.90;;;;;;4931483;29;20228;-71
2023/11/27 17:06:33;;;;;;;2.75;2.55;;;1.50;99.90;;;;;;4935349;29;20210;-73
2023/11/27 17:09:00;;;;;;;3.75;3.50;;;1.50;99.90;;;;;;4931309;29;20213;-72
2023/11/27 17:11:27;;;;;;;2.72;2.58;;;1.40;99.90;;;;;;4932298;29;20241;-72
2023/11/27 17:13:53;;;;;;;3.40;3.10;;;1.40;99.90;;;;;;4934828;29;20237;-72
2023/11/27 17:16:20;;;;;;;3.30;2.85;;;1.40;99.90;;;;;;4932872;29;20210;-71
2023/11/27 17:18:47;;;;;;;3.42;3.22;;;1.40;99.90;;;;;;4934495;29;20221;-72
2023/11/27 17:21:14;;;;;;;2.38;2.17;;;1.40;99.90;;;;;;4929726;29;20236;-71
2023/11/27 17:23:44;;;;;;;3.00;2.80;;;1.40;99.90;;;;;;4938520;29;20272;-72
2023/11/27 17:26:11;;;;;;;1.80;1.70;;;1.30;99.90;;;;;;4933932;29;20209;-72
2023/11/27 17:28:37;;;;;;;2.60;2.40;;;1.30;99.90;;;;;;4943156;29;20240;-72
2023/11/27 17:31:05;;;;;;;3.17;2.30;;;1.30;99.90;;;;;;4945946;29;20210;-72
2023/11/27 17:33:31;;;;;;;1.88;1.88;;;1.30;99.90;;;;;;4954762;29;20228;-72
2023/11/27 17:35:58;;;;;;;3.00;2.33;;;1.30;99.90;;;;;;4953233;29;20210;-73
2023/11/27 17:38:25;;;;;;;1.95;1.85;;;1.30;99.90;;;;;;4935848;29;20229;-71
2023/11/27 17:40:53;;;;;;;2.55;2.55;;;1.30;99.90;;;;;;4938173;29;20216;-73
2023/11/27 17:43:20;;;;;;;2.05;1.95;;;1.20;99.90;;;;;;4938006;29;20313;-73
2023/11/27 17:45:47;;;;;;;2.42;2.25;;;1.20;99.90;;;;;;4936095;29;20210;-72
2023/11/27 17:48:15;;;;;;;2.80;2.70;;;1.20;99.90;;;;;;4937994;29;20206;-72
2023/11/27 17:50:42;;;;;;;3.53;2.20;;;1.20;99.90;;;;;;4938090;29;20213;-72
2023/11/27 17:53:09;;;;;;;2.45;2.25;;;1.20;99.90;;;;;;4935249;29;20553;-71
2023/11/27 17:55:37;;;;;;;1.73;1.67;;;1.20;99.90;;;;;;4934872;29;20213;-72
2023/11/27 17:58:05;;;;;;;2.67;2.55;;;1.10;99.90;;;;;;4934640;29;21849;-72
2023/11/27 18:00:32;;;;;;;2.35;2.05;;;1.20;99.90;;;;;;4931873;29;20221;-71
2023/11/27 18:02:59;;;;;;;1.73;1.52;;;1.20;99.90;;;;;;4932798;29;20317;-72
2023/11/27 18:05:26;;;;;;;1.40;1.33;;;1.20;99.90;;;;;;4933840;29;20243;-71
2023/11/27 18:07:53;;;;;;;1.65;1.02;;;1.20;99.90;;;;;;4933002;29;20236;-71
2023/11/27 18:10:22;;;;;;;2.70;2.33;;;1.20;99.90;;;;;;4934960;29;20221;-70
2023/11/27 18:12:49;;;;;;;0.82;0.82;;;1.20;99.90;;;;;;4932319;29;20333;-71